Terminal Aerodrome Forecast
Issued by NWS Bismarck, ND

Home | Current Version | Previous Version | Graphics & Text | Print | Product List | Glossary On
Versions: 1 2 3 4 5 6 7 8 9 10 11 12 13 14 15 16
267
FTUS43 KBIS 191127
TAFBIS
TAF
KBIS 191127Z 1912/2012 VRB03KT P6SM SCT110 BKN250
     FM191400 29006KT P6SM SCT080 BKN100
     FM192000 27007KT P6SM SCT100 SCT150=

USA.gov is the U.S. government's official web portal to all federal, state and local government web resources and services.